Time;durP1;ratioP1;P1;durP2;ratioP2;P2;SDS_P1;SDS_P2;PMS_P1;PMS_P2;Temp;Humidity;BMP_temperature;BMP_pressure;BME280_temperature;BME280_humidity;BME280_pressure;Samples;Min_cycle;Max_cycle;Signal;HPM_P1;HPM_P2
2022/12/02 00:01:49;;;;;;;0.00;0.00;;;;;;;;;;5034496;28;20025;-78
2022/12/02 00:04:20;;;;;;;0.00;0.00;;;;;;;;;;5040843;28;20037;-76
2022/12/02 00:06:46;;;;;;;0.00;0.00;;;;;;;;;;5032984;28;20035;-77
2022/12/02 00:09:33;;;;;;;0.00;0.00;;;;;;;;;;5031603;28;20025;-76
2022/12/02 00:12:03;;;;;;;0.10;0.10;;;;;;;;;;5037520;28;20035;-77
2022/12/02 00:14:30;;;;;;;0.00;0.00;;;;;;;;;;5028983;28;20033;-77
2022/12/02 00:16:57;;;;;;;0.00;0.00;;;;;;;;;;5025066;28;20061;-76
2022/12/02 00:19:23;;;;;;;0.00;0.00;;;;;;;;;;5046482;28;20048;-76
2022/12/02 00:21:50;;;;;;;0.03;0.03;;;;;;;;;;5021710;28;20112;-76
2022/12/02 00:24:17;;;;;;;0.03;0.03;;;;;;;;;;5033570;28;20411;-76
2022/12/02 00:26:44;;;;;;;0.00;0.00;;;;;;;;;;5022463;28;20036;-77
2022/12/02 00:29:11;;;;;;;0.00;0.00;;;;;;;;;;5029966;28;20049;-76
2022/12/02 00:31:37;;;;;;;0.00;0.00;;;;;;;;;;5054929;28;20029;-76
2022/12/02 00:34:04;;;;;;;0.00;0.00;;;;;;;;;;5052199;28;20021;-75
2022/12/02 00:36:30;;;;;;;0.03;0.03;;;;;;;;;;5057110;28;20096;-76
2022/12/02 00:38:56;;;;;;;0.00;0.00;;;;;;;;;;5036152;28;20434;-76
2022/12/02 00:41:23;;;;;;;0.00;0.00;;;;;;;;;;5021760;28;20480;-76
2022/12/02 00:46:45;;;;;;;0.00;0.00;;;;;;;;;;4995514;28;20048;-77
2022/12/02 00:49:16;;;;;;;0.00;0.00;;;;;;;;;;5050727;28;20037;-76
2022/12/02 00:51:43;;;;;;;0.00;0.00;;;;;;;;;;5046274;28;20022;-76
2022/12/02 00:54:10;;;;;;;0.00;0.00;;;;;;;;;;5021952;28;20056;-75
2022/12/02 00:56:36;;;;;;;0.00;0.00;;;;;;;;;;5032432;28;20467;-74
2022/12/02 00:59:03;;;;;;;0.00;0.00;;;;;;;;;;5055756;28;20029;-76
2022/12/02 01:01:29;;;;;;;0.00;0.00;;;;;;;;;;5035201;28;20029;-75
2022/12/02 01:03:56;;;;;;;0.00;0.00;;;;;;;;;;5053494;28;20025;-76
2022/12/02 01:06:22;;;;;;;0.10;0.10;;;;;;;;;;5056786;28;20095;-75
2022/12/02 01:08:49;;;;;;;0.00;0.00;;;;;;;;;;5035099;28;20021;-76
2022/12/02 01:11:16;;;;;;;0.00;0.00;;;;;;;;;;5039839;28;20029;-77
2022/12/02 01:13:42;;;;;;;0.00;0.00;;;;;;;;;;5055557;28;20024;-75
2022/12/02 01:16:09;;;;;;;0.00;0.00;;;;;;;;;;5045125;28;20056;-75
2022/12/02 01:18:35;;;;;;;0.00;0.00;;;;;;;;;;5028726;28;20028;-76
2022/12/02 01:21:02;;;;;;;0.10;0.10;;;;;;;;;;5044297;28;20037;-75
2022/12/02 01:23:28;;;;;;;0.00;0.00;;;;;;;;;;5032375;28;20037;-75
2022/12/02 01:25:54;;;;;;;0.00;0.00;;;;;;;;;;5022805;28;20026;-75
2022/12/02 01:28:21;;;;;;;0.00;0.00;;;;;;;;;;5031361;28;20097;-76
2022/12/02 01:30:47;;;;;;;0.00;0.00;;;;;;;;;;5044577;28;20079;-76
2022/12/02 01:33:13;;;;;;;0.00;0.00;;;;;;;;;;5043834;28;20071;-75
2022/12/02 01:35:40;;;;;;;0.00;0.00;;;;;;;;;;5044402;28;20438;-75
2022/12/02 01:38:06;;;;;;;0.00;0.00;;;;;;;;;;5038292;28;20033;-75
2022/12/02 01:40:33;;;;;;;0.00;0.00;;;;;;;;;;5046291;28;20055;-76
2022/12/02 01:42:59;;;;;;;0.00;0.00;;;;;;;;;;5029552;28;20032;-76
2022/12/02 01:45:25;;;;;;;0.00;0.00;;;;;;;;;;5031430;28;20029;-77
2022/12/02 01:47:52;;;;;;;0.00;0.00;;;;;;;;;;5053858;28;20021;-76
2022/12/02 01:50:19;;;;;;;0.00;0.00;;;;;;;;;;5035945;28;20025;-74
2022/12/02 01:52:45;;;;;;;0.00;0.00;;;;;;;;;;5054426;28;20211;-75
2022/12/02 01:55:13;;;;;;;0.00;0.00;;;;;;;;;;5051822;28;20483;-75
2022/12/02 01:57:40;;;;;;;0.00;0.00;;;;;;;;;;5054464;28;20475;-75
2022/12/02 02:00:06;;;;;;;0.00;0.00;;;;;;;;;;5032872;28;20040;-76
2022/12/02 02:02:36;;;;;;;0.00;0.00;;;;;;;;;;5033459;28;20044;-76
2022/12/02 02:05:09;;;;;;;0.03;0.03;;;;;;;;;;5030623;28;20669;-76
2022/12/02 02:07:36;;;;;;;0.00;0.00;;;;;;;;;;5032578;28;20124;-75
2022/12/02 02:10:03;;;;;;;0.00;0.00;;;;;;;;;;5030912;28;21341;-76
2022/12/02 02:12:30;;;;;;;0.00;0.00;;;;;;;;;;5050307;28;20021;-75
2022/12/02 02:14:56;;;;;;;0.00;0.00;;;;;;;;;;5047720;28;20033;-77
2022/12/02 02:17:23;;;;;;;0.00;0.00;;;;;;;;;;5020941;28;20517;-76
2022/12/02 02:19:53;;;;;;;0.00;0.00;;;;;;;;;;5040069;28;20038;-78
2022/12/02 02:22:48;;;;;;;0.00;0.00;;;;;;;;;;5023600;28;20044;-76
2022/12/02 02:25:16;;;;;;;0.10;0.10;;;;;;;;;;5024236;28;20080;-76
2022/12/02 02:27:44;;;;;;;0.00;0.00;;;;;;;;;;5026260;28;20174;-75
2022/12/02 02:30:11;;;;;;;0.00;0.00;;;;;;;;;;5045161;28;20048;-77
2022/12/02 02:32:37;;;;;;;0.07;0.07;;;;;;;;;;5035267;28;20056;-78
2022/12/02 02:35:04;;;;;;;0.07;0.07;;;;;;;;;;5044980;28;20025;-77
2022/12/02 02:37:31;;;;;;;0.00;0.00;;;;;;;;;;5047030;28;20047;-75
2022/12/02 02:40:00;;;;;;;0.00;0.00;;;;;;;;;;5031884;28;20033;-76
2022/12/02 02:42:27;;;;;;;0.10;0.10;;;;;;;;;;5024330;28;20036;-76
2022/12/02 02:44:53;;;;;;;0.00;0.00;;;;;;;;;;5025444;28;20048;-76
2022/12/02 02:47:20;;;;;;;0.00;0.00;;;;;;;;;;5028198;28;20688;-76
2022/12/02 02:49:46;;;;;;;0.00;0.00;;;;;;;;;;5041859;28;20055;-76
2022/12/02 02:52:13;;;;;;;0.00;0.00;;;;;;;;;;5031744;28;20028;-77
2022/12/02 02:54:39;;;;;;;0.00;0.00;;;;;;;;;;5049480;28;20033;-76
2022/12/02 02:57:05;;;;;;;0.07;0.07;;;;;;;;;;5043047;28;20029;-76
2022/12/02 02:59:31;;;;;;;0.10;0.10;;;;;;;;;;5039575;28;20182;-76
2022/12/02 03:01:58;;;;;;;0.00;0.00;;;;;;;;;;5027942;28;20071;-75
2022/12/02 03:04:25;;;;;;;0.00;0.00;;;;;;;;;;5041050;28;20116;-78
2022/12/02 03:06:54;;;;;;;0.00;0.00;;;;;;;;;;5041529;28;20471;-77
2022/12/02 03:09:22;;;;;;;0.00;0.00;;;;;;;;;;5028410;28;20071;-76
2022/12/02 03:11:49;;;;;;;0.00;0.00;;;;;;;;;;5027429;28;20056;-77
2022/12/02 03:14:17;;;;;;;0.03;0.03;;;;;;;;;;5020475;28;20593;-77
2022/12/02 03:16:44;;;;;;;0.00;0.00;;;;;;;;;;5024195;28;20025;-75
2022/12/02 03:19:10;;;;;;;0.00;0.00;;;;;;;;;;5032257;28;20029;-76
2022/12/02 03:21:37;;;;;;;0.00;0.00;;;;;;;;;;5045906;28;20124;-76
2022/12/02 03:24:04;;;;;;;0.00;0.00;;;;;;;;;;5027265;28;20033;-78
2022/12/02 03:26:32;;;;;;;0.00;0.00;;;;;;;;;;5048593;28;20048;-78
2022/12/02 03:29:00;;;;;;;0.00;0.00;;;;;;;;;;5038431;28;20106;-82
2022/12/02 03:31:27;;;;;;;0.10;0.10;;;;;;;;;;5005376;28;20124;-76
2022/12/02 03:33:54;;;;;;;0.00;0.00;;;;;;;;;;5003869;28;20025;-79
2022/12/02 03:36:21;;;;;;;0.00;0.00;;;;;;;;;;5020191;28;20061;-74
2022/12/02 03:38:47;;;;;;;0.10;0.10;;;;;;;;;;5029476;28;20041;-79
2022/12/02 03:41:14;;;;;;;0.00;0.00;;;;;;;;;;5021090;28;20029;-80
2022/12/02 03:43:40;;;;;;;0.00;0.00;;;;;;;;;;5019968;28;20034;-77
2022/12/02 03:46:07;;;;;;;0.00;0.00;;;;;;;;;;5007486;28;20029;-77
2022/12/02 03:48:35;;;;;;;0.00;0.00;;;;;;;;;;5013983;28;20029;-77
2022/12/02 03:51:01;;;;;;;0.00;0.00;;;;;;;;;;5012057;28;20112;-76
2022/12/02 03:53:29;;;;;;;0.00;0.00;;;;;;;;;;5022894;28;20029;-78
2022/12/02 03:55:56;;;;;;;0.00;0.00;;;;;;;;;;5007331;28;20042;-79
2022/12/02 03:58:32;;;;;;;0.10;0.10;;;;;;;;;;5007129;28;21186;-80
2022/12/02 04:00:58;;;;;;;0.00;0.00;;;;;;;;;;5006330;28;20033;-80
2022/12/02 04:03:25;;;;;;;0.00;0.00;;;;;;;;;;5006370;28;20369;-80
2022/12/02 04:05:51;;;;;;;0.03;0.03;;;;;;;;;;5011861;28;20029;-80
2022/12/02 04:08:17;;;;;;;0.00;0.00;;;;;;;;;;5014298;28;20025;-82
2022/12/02 04:10:44;;;;;;;0.00;0.00;;;;;;;;;;5033484;28;20028;-80
2022/12/02 04:13:10;;;;;;;0.00;0.00;;;;;;;;;;5005900;28;20037;-82
2022/12/02 04:15:36;;;;;;;0.00;0.00;;;;;;;;;;5023470;28;20036;-81
2022/12/02 04:18:03;;;;;;;0.00;0.00;;;;;;;;;;5034591;28;20032;-80
2022/12/02 04:20:29;;;;;;;0.00;0.00;;;;;;;;;;5016247;28;20053;-79
2022/12/02 04:22:55;;;;;;;0.00;0.00;;;;;;;;;;5010740;28;20037;-77
2022/12/02 04:25:22;;;;;;;0.00;0.00;;;;;;;;;;5026570;28;20025;-77
2022/12/02 04:27:50;;;;;;;0.00;0.00;;;;;;;;;;5009672;28;20508;-79
2022/12/02 04:30:17;;;;;;;0.00;0.00;;;;;;;;;;5041132;28;20029;-75
2022/12/02 04:32:43;;;;;;;0.00;0.00;;;;;;;;;;5024276;28;20044;-76
2022/12/02 04:35:10;;;;;;;0.00;0.00;;;;;;;;;;5028528;28;20029;-80
2022/12/02 04:37:36;;;;;;;0.00;0.00;;;;;;;;;;5026262;28;20601;-80
2022/12/02 04:40:02;;;;;;;0.00;0.00;;;;;;;;;;5027745;28;20544;-81
2022/12/02 04:42:29;;;;;;;0.00;0.00;;;;;;;;;;5026726;28;20034;-80
2022/12/02 04:44:55;;;;;;;0.00;0.00;;;;;;;;;;5020700;28;20136;-80
2022/12/02 04:47:21;;;;;;;0.00;0.00;;;;;;;;;;5029258;28;20075;-79
2022/12/02 04:49:48;;;;;;;0.00;0.00;;;;;;;;;;5026364;28;20135;-76
2022/12/02 04:52:14;;;;;;;0.00;0.00;;;;;;;;;;5041797;28;20029;-80
2022/12/02 04:54:41;;;;;;;0.00;0.00;;;;;;;;;;5029420;28;20030;-78
2022/12/02 04:57:07;;;;;;;0.00;0.00;;;;;;;;;;5047754;28;20136;-79
2022/12/02 04:59:34;;;;;;;0.00;0.00;;;;;;;;;;5030488;28;20520;-78
2022/12/02 05:02:00;;;;;;;0.00;0.00;;;;;;;;;;5027712;28;20144;-81
2022/12/02 05:04:45;;;;;;;0.03;0.03;;;;;;;;;;5025568;28;20052;-82
2022/12/02 05:07:11;;;;;;;0.10;0.10;;;;;;;;;;5039636;28;20033;-78
2022/12/02 05:09:38;;;;;;;0.00;0.00;;;;;;;;;;5022529;28;20061;-77
2022/12/02 05:12:04;;;;;;;0.00;0.00;;;;;;;;;;5063607;22;20191;-80
2022/12/02 05:14:30;;;;;;;0.00;0.00;;;;;;;;;;5058255;28;20072;-78
2022/12/02 05:16:57;;;;;;;0.00;0.00;;;;;;;;;;5050702;28;20031;-79
2022/12/02 05:19:23;;;;;;;0.00;0.00;;;;;;;;;;5056254;28;20017;-80
2022/12/02 05:21:50;;;;;;;0.00;0.00;;;;;;;;;;5058281;28;20068;-78
2022/12/02 05:24:16;;;;;;;0.00;0.00;;;;;;;;;;5060297;28;20052;-79
2022/12/02 05:26:42;;;;;;;0.00;0.00;;;;;;;;;;5059237;28;20025;-79
2022/12/02 05:29:09;;;;;;;0.00;0.00;;;;;;;;;;5056102;28;20036;-78
2022/12/02 05:31:35;;;;;;;0.00;0.00;;;;;;;;;;5050048;28;20048;-79
2022/12/02 05:34:01;;;;;;;0.00;0.00;;;;;;;;;;5061466;28;20036;-79
2022/12/02 05:36:27;;;;;;;0.00;0.00;;;;;;;;;;5039797;28;20079;-78
2022/12/02 05:38:54;;;;;;;0.00;0.00;;;;;;;;;;5058471;28;20052;-79
2022/12/02 05:41:20;;;;;;;0.00;0.00;;;;;;;;;;5057503;28;20027;-78
2022/12/02 05:43:46;;;;;;;0.00;0.00;;;;;;;;;;5058958;28;20024;-79
2022/12/02 05:46:18;;;;;;;0.00;0.00;;;;;;;;;;5054195;28;20032;-79
2022/12/02 05:48:45;;;;;;;0.00;0.00;;;;;;;;;;5056946;28;20040;-78
2022/12/02 05:51:15;;;;;;;0.00;0.00;;;;;;;;;;5054307;28;20036;-78
2022/12/02 05:53:42;;;;;;;0.00;0.00;;;;;;;;;;5057349;28;20044;-80
2022/12/02 05:56:13;;;;;;;0.00;0.00;;;;;;;;;;5045216;28;20059;-80
2022/12/02 05:58:40;;;;;;;0.00;0.00;;;;;;;;;;5059385;28;20108;-77
2022/12/02 06:01:15;;;;;;;0.00;0.00;;;;;;;;;;5059138;28;20024;-79
2022/12/02 06:03:41;;;;;;;0.00;0.00;;;;;;;;;;5055995;28;20120;-79
2022/12/02 06:06:10;;;;;;;0.00;0.00;;;;;;;;;;5050100;28;20431;-78
2022/12/02 06:08:36;;;;;;;0.00;0.00;;;;;;;;;;5054609;28;20119;-78
2022/12/02 06:11:04;;;;;;;0.00;0.00;;;;;;;;;;5055237;28;20048;-78
2022/12/02 06:13:37;;;;;;;0.00;0.00;;;;;;;;;;5054077;28;20121;-78
2022/12/02 06:16:06;;;;;;;0.00;0.00;;;;;;;;;;5057234;28;20024;-77
2022/12/02 06:18:34;;;;;;;0.00;0.00;;;;;;;;;;5056678;28;20029;-80
2022/12/02 06:21:02;;;;;;;0.00;0.00;;;;;;;;;;5054809;28;20041;-79
2022/12/02 06:23:30;;;;;;;0.00;0.00;;;;;;;;;;5055965;28;20036;-82
2022/12/02 06:25:57;;;;;;;0.00;0.00;;;;;;;;;;5052019;28;20883;-80
2022/12/02 06:28:26;;;;;;;0.00;0.00;;;;;;;;;;5053955;28;20521;-81
2022/12/02 06:30:57;;;;;;;0.00;0.00;;;;;;;;;;5054689;28;20033;-80
2022/12/02 06:33:26;;;;;;;0.00;0.00;;;;;;;;;;5035513;28;20040;-78
2022/12/02 06:35:53;;;;;;;0.00;0.00;;;;;;;;;;5040335;28;20074;-80
2022/12/02 06:38:28;;;;;;;0.00;0.00;;;;;;;;;;5058058;28;20115;-80
2022/12/02 06:40:54;;;;;;;0.00;0.00;;;;;;;;;;5058488;28;20111;-80
2022/12/02 06:43:24;;;;;;;0.00;0.00;;;;;;;;;;5058661;28;20540;-79
2022/12/02 06:45:50;;;;;;;0.00;0.00;;;;;;;;;;5058953;28;20079;-80
2022/12/02 06:48:23;;;;;;;0.00;0.00;;;;;;;;;;5059006;28;20115;-79
2022/12/02 06:50:49;;;;;;;0.00;0.00;;;;;;;;;;5056467;28;20429;-79
2022/12/02 06:53:27;;;;;;;0.00;0.00;;;;;;;;;;5053227;28;20052;-79
2022/12/02 06:55:59;;;;;;;0.00;0.00;;;;;;;;;;5056467;28;20044;-80
2022/12/02 06:58:32;;;;;;;0.00;0.00;;;;;;;;;;5058305;28;20029;-80
2022/12/02 07:01:07;;;;;;;0.00;0.00;;;;;;;;;;5058201;28;20416;-80
2022/12/02 07:03:36;;;;;;;0.00;0.00;;;;;;;;;;5056859;28;20038;-80
2022/12/02 07:06:12;;;;;;;0.00;0.00;;;;;;;;;;5041218;28;20087;-78
2022/12/02 07:08:38;;;;;;;0.00;0.00;;;;;;;;;;5056274;28;20534;-79
2022/12/02 07:11:15;;;;;;;0.00;0.00;;;;;;;;;;5058307;28;20490;-79
2022/12/02 07:13:41;;;;;;;0.00;0.00;;;;;;;;;;5055483;28;20031;-78
2022/12/02 07:16:46;;;;;;;0.00;0.00;;;;;;;;;;5053943;28;20503;-78
2022/12/02 07:19:29;;;;;;;0.00;0.00;;;;;;;;;;4977950;28;20029;-78
2022/12/02 07:21:56;;;;;;;0.00;0.00;;;;;;;;;;4981217;28;20095;-78
2022/12/02 07:24:22;;;;;;;0.00;0.00;;;;;;;;;;5026311;28;20041;-79
2022/12/02 07:26:49;;;;;;;0.00;0.00;;;;;;;;;;5058763;28;20105;-78
2022/12/02 07:29:20;;;;;;;0.00;0.00;;;;;;;;;;5055924;28;20503;-79
2022/12/02 07:31:47;;;;;;;0.00;0.00;;;;;;;;;;5056286;28;20044;-79
2022/12/02 07:34:13;;;;;;;0.00;0.00;;;;;;;;;;5056805;28;20029;-80
2022/12/02 07:36:40;;;;;;;0.00;0.00;;;;;;;;;;5057385;28;20029;-79
2022/12/02 07:39:06;;;;;;;0.00;0.00;;;;;;;;;;5054344;28;20465;-79
2022/12/02 07:41:33;;;;;;;0.00;0.00;;;;;;;;;;5053461;28;20187;-78
2022/12/02 07:43:59;;;;;;;0.00;0.00;;;;;;;;;;5050774;28;20028;-80
2022/12/02 07:46:25;;;;;;;0.00;0.00;;;;;;;;;;5054209;28;20037;-77
2022/12/02 07:48:52;;;;;;;0.00;0.00;;;;;;;;;;5052654;28;20037;-77
2022/12/02 07:51:18;;;;;;;0.00;0.00;;;;;;;;;;5049912;28;20744;-79
2022/12/02 07:53:44;;;;;;;0.00;0.00;;;;;;;;;;5054038;28;20020;-80
2022/12/02 07:56:11;;;;;;;0.00;0.00;;;;;;;;;;5051242;28;20362;-83
2022/12/02 07:58:37;;;;;;;0.00;0.00;;;;;;;;;;5037858;28;20081;-77
2022/12/02 08:01:03;;;;;;;0.00;0.00;;;;;;;;;;5055521;28;20530;-80
2022/12/02 08:03:30;;;;;;;0.00;0.00;;;;;;;;;;5054670;28;20032;-77
2022/12/02 08:05:58;;;;;;;0.00;0.00;;;;;;;;;;5055940;28;20556;-79
2022/12/02 08:08:24;;;;;;;0.00;0.00;;;;;;;;;;5055738;28;20064;-80
2022/12/02 08:10:50;;;;;;;0.00;0.00;;;;;;;;;;5053742;28;20028;-80
2022/12/02 08:13:17;;;;;;;0.00;0.00;;;;;;;;;;5059269;28;20200;-80
2022/12/02 08:15:43;;;;;;;0.00;0.00;;;;;;;;;;5054278;28;20054;-79
2022/12/02 08:18:09;;;;;;;0.00;0.00;;;;;;;;;;5049600;28;20522;-79
2022/12/02 08:20:35;;;;;;;0.00;0.00;;;;;;;;;;5054663;28;20032;-81
2022/12/02 08:23:04;;;;;;;0.00;0.00;;;;;;;;;;5057280;28;20033;-79
2022/12/02 08:25:30;;;;;;;0.00;0.00;;;;;;;;;;5056349;28;20052;-81
2022/12/02 08:27:59;;;;;;;0.00;0.00;;;;;;;;;;5056399;28;20155;-81
2022/12/02 08:30:26;;;;;;;0.00;0.00;;;;;;;;;;5054076;28;20465;-78
2022/12/02 08:32:52;;;;;;;0.00;0.00;;;;;;;;;;5062730;28;20029;-79
2022/12/02 08:35:19;;;;;;;0.00;0.00;;;;;;;;;;5057839;28;20033;-80
2022/12/02 08:37:45;;;;;;;0.00;0.00;;;;;;;;;;5058722;28;20089;-80
2022/12/02 08:40:12;;;;;;;0.00;0.00;;;;;;;;;;5036556;28;20392;-79
2022/12/02 08:42:38;;;;;;;0.00;0.00;;;;;;;;;;5050818;28;20040;-82
2022/12/02 08:45:04;;;;;;;0.00;0.00;;;;;;;;;;5056377;28;20029;-82
2022/12/02 08:47:31;;;;;;;0.00;0.00;;;;;;;;;;5053779;28;20028;-82
2022/12/02 08:49:57;;;;;;;0.00;0.00;;;;;;;;;;5051854;28;20041;-80
2022/12/02 08:52:23;;;;;;;0.00;0.00;;;;;;;;;;5055219;28;20070;-82
2022/12/02 08:54:50;;;;;;;0.00;0.00;;;;;;;;;;5058943;28;20461;-82
2022/12/02 08:57:16;;;;;;;0.00;0.00;;;;;;;;;;5037421;28;20502;-82
2022/12/02 08:59:58;;;;;;;0.00;0.00;;;;;;;;;;5060029;28;20040;-82
2022/12/02 09:02:24;;;;;;;0.00;0.00;;;;;;;;;;5054559;28;20033;-82
2022/12/02 09:04:50;;;;;;;0.00;0.00;;;;;;;;;;5055754;28;20108;-81
2022/12/02 09:07:17;;;;;;;0.00;0.00;;;;;;;;;;5059213;28;20032;-80
2022/12/02 09:09:45;;;;;;;0.00;0.00;;;;;;;;;;5050772;28;20433;-81
2022/12/02 09:12:11;;;;;;;0.00;0.00;;;;;;;;;;5054268;28;20048;-82
2022/12/02 09:14:38;;;;;;;0.00;0.00;;;;;;;;;;5057144;28;20025;-81
2022/12/02 09:17:04;;;;;;;0.00;0.00;;;;;;;;;;5060039;28;20040;-80
2022/12/02 09:19:30;;;;;;;0.00;0.00;;;;;;;;;;5051892;28;20082;-81
2022/12/02 09:21:57;;;;;;;0.00;0.00;;;;;;;;;;5061033;28;20510;-82
2022/12/02 09:24:23;;;;;;;0.00;0.00;;;;;;;;;;5062350;28;20037;-82
2022/12/02 09:26:49;;;;;;;0.00;0.00;;;;;;;;;;5058940;28;20025;-81
2022/12/02 09:29:16;;;;;;;0.00;0.00;;;;;;;;;;5062721;28;20029;-81
2022/12/02 09:31:42;;;;;;;0.00;0.00;;;;;;;;;;5041849;28;21182;-80
2022/12/02 09:34:08;;;;;;;0.00;0.00;;;;;;;;;;5047552;28;20048;-81
2022/12/02 09:36:35;;;;;;;0.00;0.00;;;;;;;;;;5053453;28;20029;-82
2022/12/02 09:39:01;;;;;;;0.00;0.00;;;;;;;;;;5053705;28;20045;-82
2022/12/02 09:41:28;;;;;;;0.00;0.00;;;;;;;;;;5050349;28;20153;-81
2022/12/02 09:43:54;;;;;;;0.00;0.00;;;;;;;;;;5037126;28;20068;-82
2022/12/02 09:46:20;;;;;;;0.00;0.00;;;;;;;;;;5050488;28;20486;-82
2022/12/02 09:48:47;;;;;;;0.00;0.00;;;;;;;;;;5054139;28;20029;-82
2022/12/02 09:51:13;;;;;;;0.00;0.00;;;;;;;;;;5055003;28;20032;-81
2022/12/02 09:53:41;;;;;;;0.00;0.00;;;;;;;;;;5055162;28;20032;-81
2022/12/02 09:56:18;;;;;;;0.00;0.00;;;;;;;;;;5043846;28;20036;-82
2022/12/02 09:58:45;;;;;;;0.00;0.00;;;;;;;;;;5057155;28;20317;-82
2022/12/02 10:01:13;;;;;;;0.00;0.00;;;;;;;;;;5043312;28;20044;-82
2022/12/02 10:03:39;;;;;;;0.00;0.00;;;;;;;;;;5056334;28;20032;-81
2022/12/02 10:06:08;;;;;;;0.00;0.00;;;;;;;;;;5055842;28;20097;-81
2022/12/02 10:08:34;;;;;;;0.00;0.00;;;;;;;;;;5057057;28;20433;-82
2022/12/02 10:11:01;;;;;;;0.00;0.00;;;;;;;;;;5060851;28;20518;-82
2022/12/02 10:13:28;;;;;;;0.00;0.00;;;;;;;;;;5056316;28;20072;-82
2022/12/02 10:15:54;;;;;;;0.00;0.00;;;;;;;;;;5033916;28;20033;-82
2022/12/02 10:18:24;;;;;;;0.00;0.00;;;;;;;;;;5058518;28;20189;-83
2022/12/02 10:20:50;;;;;;;0.00;0.00;;;;;;;;;;5053977;28;20649;-82
2022/12/02 10:23:26;;;;;;;0.00;0.00;;;;;;;;;;5059865;28;20067;-81
2022/12/02 10:25:53;;;;;;;0.00;0.00;;;;;;;;;;5038669;28;20048;-82
2022/12/02 10:28:27;;;;;;;0.00;0.00;;;;;;;;;;5042011;28;20078;-83
2022/12/02 10:30:55;;;;;;;0.00;0.00;;;;;;;;;;5041950;28;20485;-82
2022/12/02 10:33:26;;;;;;;0.00;0.00;;;;;;;;;;5063330;28;20589;-83
2022/12/02 10:35:53;;;;;;;0.00;0.00;;;;;;;;;;5066830;28;20028;-83
2022/12/02 10:38:30;;;;;;;0.00;0.00;;;;;;;;;;5043048;28;20032;-83
2022/12/02 10:41:14;;;;;;;0.00;0.00;;;;;;;;;;5058333;28;20032;-82
2022/12/02 10:43:41;;;;;;;0.00;0.00;;;;;;;;;;5059398;28;20032;-81
2022/12/02 10:46:11;;;;;;;0.00;0.00;;;;;;;;;;5058871;28;21303;-80
2022/12/02 10:48:37;;;;;;;0.00;0.00;;;;;;;;;;5057979;28;20033;-82
2022/12/02 10:51:04;;;;;;;0.00;0.00;;;;;;;;;;5058138;28;20112;-82
2022/12/02 10:53:30;;;;;;;0.00;0.00;;;;;;;;;;5060302;28;20070;-82
2022/12/02 10:55:57;;;;;;;0.00;0.00;;;;;;;;;;5057447;28;20028;-80
2022/12/02 10:58:30;;;;;;;0.00;0.00;;;;;;;;;;5058378;28;20048;-82
2022/12/02 11:00:57;;;;;;;0.00;0.00;;;;;;;;;;5055811;28;20028;-82
2022/12/02 11:03:24;;;;;;;0.00;0.00;;;;;;;;;;5057323;28;20061;-81
2022/12/02 11:05:51;;;;;;;0.00;0.00;;;;;;;;;;5059870;28;20028;-81
2022/12/02 11:08:27;;;;;;;0.00;0.00;;;;;;;;;;5054489;28;20082;-84
2022/12/02 11:11:09;;;;;;;0.00;0.00;;;;;;;;;;5057199;28;20024;-81
2022/12/02 11:13:51;;;;;;;0.00;0.00;;;;;;;;;;5052259;28;20060;-81
2022/12/02 11:16:27;;;;;;;0.00;0.00;;;;;;;;;;5050240;28;20029;-80
2022/12/02 11:18:58;;;;;;;0.00;0.00;;;;;;;;;;5058136;28;20060;-80
2022/12/02 11:21:27;;;;;;;0.00;0.00;;;;;;;;;;5054070;28;20037;-81
2022/12/02 11:24:13;;;;;;;0.00;0.00;;;;;;;;;;5058090;28;20036;-79
2022/12/02 11:27:06;;;;;;;0.00;0.00;;;;;;;;;;5059176;28;20663;-80
2022/12/02 11:29:33;;;;;;;0.00;0.00;;;;;;;;;;5026061;28;20122;-79
2022/12/02 11:32:01;;;;;;;0.00;0.00;;;;;;;;;;5050605;28;20117;-80
2022/12/02 11:34:40;;;;;;;0.00;0.00;;;;;;;;;;5050480;28;20025;-78
2022/12/02 11:37:25;;;;;;;0.00;0.00;;;;;;;;;;5054180;28;20037;-79
2022/12/02 11:39:51;;;;;;;0.00;0.00;;;;;;;;;;5042092;28;20028;-79
2022/12/02 11:42:20;;;;;;;0.00;0.00;;;;;;;;;;5031494;28;20341;-80
2022/12/02 11:44:46;;;;;;;0.00;0.00;;;;;;;;;;5051746;28;20029;-78
2022/12/02 11:47:24;;;;;;;0.00;0.00;;;;;;;;;;5044058;28;20477;-80
2022/12/02 11:49:51;;;;;;;0.00;0.00;;;;;;;;;;5050742;28;20762;-79
2022/12/02 11:52:18;;;;;;;0.00;0.00;;;;;;;;;;5050716;28;20050;-79
2022/12/02 11:55:08;;;;;;;0.00;0.00;;;;;;;;;;5049792;28;20590;-80
2022/12/02 11:57:43;;;;;;;0.00;0.00;;;;;;;;;;5032155;28;20049;-78
2022/12/02 12:00:23;;;;;;;0.00;0.00;;;;;;;;;;5051546;28;20039;-79
2022/12/02 12:03:08;;;;;;;0.00;0.00;;;;;;;;;;5027257;28;20469;-79
2022/12/02 12:05:35;;;;;;;0.00;0.00;;;;;;;;;;5046431;28;20531;-79
2022/12/02 12:08:01;;;;;;;0.00;0.00;;;;;;;;;;5047582;28;20029;-78
2022/12/02 12:10:31;;;;;;;0.00;0.00;;;;;;;;;;5054246;28;20093;-79
2022/12/02 12:13:10;;;;;;;0.00;0.00;;;;;;;;;;5031511;28;20442;-80
2022/12/02 12:15:54;;;;;;;0.00;0.00;;;;;;;;;;5053902;28;20065;-80
2022/12/02 12:18:39;;;;;;;0.00;0.00;;;;;;;;;;5045977;28;20037;-78
2022/12/02 12:21:05;;;;;;;0.00;0.00;;;;;;;;;;5046743;28;20032;-79
2022/12/02 12:23:33;;;;;;;0.00;0.00;;;;;;;;;;5051579;28;20635;-78
2022/12/02 12:26:00;;;;;;;0.00;0.00;;;;;;;;;;5046422;28;20072;-78
2022/12/02 12:28:31;;;;;;;0.00;0.00;;;;;;;;;;5049429;28;20112;-82
2022/12/02 12:30:58;;;;;;;0.00;0.00;;;;;;;;;;5050149;28;20028;-80
2022/12/02 12:33:24;;;;;;;0.00;0.00;;;;;;;;;;5045994;28;20377;-79
2022/12/02 12:35:57;;;;;;;0.00;0.00;;;;;;;;;;5056131;28;20032;-79
2022/12/02 12:38:26;;;;;;;0.00;0.00;;;;;;;;;;5055123;28;20046;-78
2022/12/02 12:40:53;;;;;;;0.00;0.00;;;;;;;;;;5049849;28;20058;-81
2022/12/02 12:43:20;;;;;;;0.00;0.00;;;;;;;;;;5031078;28;20075;-79
2022/12/02 12:45:46;;;;;;;0.00;0.00;;;;;;;;;;5055490;28;20035;-80
2022/12/02 12:48:12;;;;;;;0.00;0.00;;;;;;;;;;5054474;28;20036;-79
2022/12/02 12:50:38;;;;;;;0.00;0.00;;;;;;;;;;5053555;28;20025;-80
2022/12/02 12:53:05;;;;;;;0.00;0.00;;;;;;;;;;5054141;28;20036;-78
2022/12/02 12:55:31;;;;;;;0.00;0.00;;;;;;;;;;5055945;28;20037;-79
2022/12/02 12:57:58;;;;;;;0.00;0.00;;;;;;;;;;5030099;28;20032;-82
2022/12/02 13:00:24;;;;;;;0.00;0.00;;;;;;;;;;5045861;28;20128;-81
2022/12/02 13:02:51;;;;;;;0.00;0.00;;;;;;;;;;5058035;28;20091;-79
2022/12/02 13:05:17;;;;;;;0.00;0.00;;;;;;;;;;5055523;28;20167;-80
2022/12/02 13:07:43;;;;;;;0.00;0.00;;;;;;;;;;5048250;28;20029;-80
2022/12/02 13:10:10;;;;;;;0.00;0.00;;;;;;;;;;5051588;28;20504;-80
2022/12/02 13:12:37;;;;;;;0.00;0.00;;;;;;;;;;5055285;28;20063;-80
2022/12/02 13:15:03;;;;;;;0.00;0.00;;;;;;;;;;5034297;28;20037;-80
2022/12/02 13:17:29;;;;;;;0.00;0.00;;;;;;;;;;5055092;28;20115;-78
2022/12/02 13:19:56;;;;;;;0.00;0.00;;;;;;;;;;5057837;28;20166;-79
2022/12/02 13:22:22;;;;;;;0.00;0.00;;;;;;;;;;5057232;28;20373;-78
2022/12/02 13:24:48;;;;;;;0.00;0.00;;;;;;;;;;5040089;28;20041;-78
2022/12/02 13:27:15;;;;;;;0.00;0.00;;;;;;;;;;5056084;28;20024;-77
2022/12/02 13:29:41;;;;;;;0.00;0.00;;;;;;;;;;5056011;28;20035;-79
2022/12/02 13:32:08;;;;;;;0.00;0.00;;;;;;;;;;5061741;28;20180;-80
2022/12/02 13:34:34;;;;;;;0.00;0.00;;;;;;;;;;5059269;28;20044;-78
2022/12/02 13:37:00;;;;;;;0.00;0.00;;;;;;;;;;5060682;28;20069;-80
2022/12/02 13:39:27;;;;;;;0.00;0.00;;;;;;;;;;5054158;28;20819;-79
2022/12/02 13:41:53;;;;;;;0.00;0.00;;;;;;;;;;5056445;28;20040;-79
2022/12/02 13:44:19;;;;;;;0.00;0.00;;;;;;;;;;5053573;28;20036;-79
2022/12/02 13:46:46;;;;;;;0.00;0.00;;;;;;;;;;5057859;28;20251;-79
2022/12/02 13:49:12;;;;;;;0.00;0.00;;;;;;;;;;5057361;28;20385;-79
2022/12/02 13:51:38;;;;;;;0.00;0.00;;;;;;;;;;5064191;28;20028;-79
2022/12/02 13:54:05;;;;;;;0.00;0.00;;;;;;;;;;5042613;28;20033;-80
2022/12/02 13:56:31;;;;;;;0.00;0.00;;;;;;;;;;5058781;28;20064;-80
2022/12/02 13:58:57;;;;;;;0.00;0.00;;;;;;;;;;5055062;28;20037;-80
2022/12/02 14:01:24;;;;;;;0.00;0.00;;;;;;;;;;5057895;28;20043;-79
2022/12/02 14:03:50;;;;;;;0.00;0.00;;;;;;;;;;5052643;28;20029;-80
2022/12/02 14:06:16;;;;;;;0.00;0.00;;;;;;;;;;5058753;28;20111;-79
2022/12/02 14:08:43;;;;;;;0.00;0.00;;;;;;;;;;5058251;28;20021;-80
2022/12/02 14:11:09;;;;;;;0.00;0.00;;;;;;;;;;5069122;28;20385;-78
2022/12/02 14:13:35;;;;;;;0.00;0.00;;;;;;;;;;5066826;28;20040;-78
2022/12/02 14:16:02;;;;;;;0.00;0.00;;;;;;;;;;5068528;28;20033;-79
2022/12/02 14:18:28;;;;;;;0.00;0.00;;;;;;;;;;5058731;28;20028;-80
2022/12/02 14:20:54;;;;;;;0.00;0.00;;;;;;;;;;5056138;28;20072;-80
2022/12/02 14:23:21;;;;;;;0.00;0.00;;;;;;;;;;5056269;28;20041;-79
2022/12/02 14:25:47;;;;;;;0.00;0.00;;;;;;;;;;5057120;28;20037;-79
2022/12/02 14:28:16;;;;;;;0.00;0.00;;;;;;;;;;5057894;28;20029;-81
2022/12/02 14:30:43;;;;;;;0.00;0.00;;;;;;;;;;5060563;28;20037;-79
2022/12/02 14:33:09;;;;;;;0.00;0.00;;;;;;;;;;5065756;28;20078;-81
2022/12/02 14:35:36;;;;;;;0.00;0.00;;;;;;;;;;5057251;28;20033;-79
2022/12/02 14:38:02;;;;;;;0.00;0.00;;;;;;;;;;5062510;28;20414;-79
2022/12/02 14:40:30;;;;;;;0.00;0.00;;;;;;;;;;5062878;28;20484;-79
2022/12/02 14:42:57;;;;;;;0.00;0.00;;;;;;;;;;5064015;28;20074;-81
2022/12/02 14:45:23;;;;;;;0.00;0.00;;;;;;;;;;5060951;28;21808;-82
2022/12/02 14:47:49;;;;;;;0.00;0.00;;;;;;;;;;5043869;28;20522;-80
2022/12/02 14:50:16;;;;;;;0.00;0.00;;;;;;;;;;5061808;28;20392;-82
2022/12/02 14:52:42;;;;;;;0.00;0.00;;;;;;;;;;5062909;28;20025;-81